Norris Observed Data For Previous 48 Hours

Caption
Day and Hour Reservoir Elevation (behind dam)* Tailwater Elevation (below dam)* Average Hourly Discharge*
4/21/2018 2 AM EDT 1,016.52 821.58 20
4/21/2018 3 AM EDT 1,016.52 821.48 20
4/21/2018 4 AM EDT 1,016.55 821.39 20
4/21/2018 5 AM EDT 1,016.53 822.24 92
4/21/2018 6 AM EDT 1,016.55 824.46 3,370
4/21/2018 7 AM EDT 1,016.57 824.62 3,364
4/21/2018 8 AM EDT 1,016.57 824.68 3,361
4/21/2018 9 AM EDT 1,016.58 824.65 3,377
4/21/2018 10 AM EDT 1,016.57 824.65 3,372
4/21/2018 11 AM EDT 1,016.56 824.63 3,372
4/21/2018 12 PM EDT 1,016.57 824.69 3,381
4/21/2018 1 PM EDT 1,016.58 824.67 3,372
4/21/2018 2 PM EDT 1,016.58 824.72 3,372
4/21/2018 3 PM EDT 1,016.58 824.66 3,373
4/21/2018 4 PM EDT 1,016.60 822.28 157
4/21/2018 5 PM EDT 1,016.61 821.87 20
4/21/2018 6 PM EDT 1,016.62 821.71 20
4/21/2018 7 PM EDT 1,016.63 821.61 20
4/21/2018 8 PM EDT 1,016.64 821.53 20
4/21/2018 9 PM EDT 1,016.65 821.45 20
4/21/2018 10 PM EDT 1,016.67 821.37 20
4/21/2018 11 PM EDT 1,016.67 821.29 20
4/22/2018 12 AM EDT 1,016.68 821.22 20
4/22/2018 1 AM EDT 1,016.69 821.15 20
4/22/2018 2 AM EDT 1,016.69 822.10 94
4/22/2018 3 AM EDT 1,016.73 823.52 3,181
4/22/2018 4 AM EDT 1,016.72 822.15 20
4/22/2018 5 AM EDT 1,016.74 821.83 20
4/22/2018 6 AM EDT 1,016.75 821.69 20
4/22/2018 7 AM EDT 1,016.75 821.60 20
4/22/2018 8 AM EDT 1,016.76 821.51 20
4/22/2018 9 AM EDT 1,016.78 821.43 20
4/22/2018 10 AM EDT 1,016.78 821.35 20
4/22/2018 11 AM EDT 1,016.78 821.27 20
4/22/2018 12 PM EDT 1,016.80 821.20 20
4/22/2018 1 PM EDT 1,016.79 821.13 20
4/22/2018 2 PM EDT 1,016.79 822.08 92
4/22/2018 3 PM EDT 1,016.83 823.53 3,196
4/22/2018 4 PM EDT 1,016.82 822.15 20
4/22/2018 5 PM EDT 1,016.82 821.83 20
4/22/2018 6 PM EDT 1,016.85 821.69 20
4/22/2018 7 PM EDT 1,016.87 821.59 20
4/22/2018 8 PM EDT 1,016.87 821.51 20
4/22/2018 9 PM EDT 1,016.91 821.42 20
4/22/2018 10 PM EDT 1,016.90 821.35 20
4/22/2018 11 PM EDT 1,016.89 821.27 20
4/23/2018 12 AM EDT 1,016.91 821.20 20
4/23/2018 1 AM EDT 1,016.93 821.13 20
4/23/2018 2 AM EDT 1,016.91 822.06 90
4/23/2018 3 AM EDT 1,016.95 823.52 3,194
4/23/2018 4 AM EDT 1,016.95 822.15 20
4/23/2018 5 AM EDT 1,016.97 821.83 20
4/23/2018 6 AM EDT 1,017.00 821.69 20
4/23/2018 7 AM EDT 1,017.00 821.60 20
4/23/2018 8 AM EDT 1,017.01 821.52 20
4/23/2018 9 AM EDT 1,017.04 821.45 20
4/23/2018 10 AM EDT 1,017.02 821.37 20
4/23/2018 11 AM EDT 1,017.05 821.30 20
4/23/2018 12 PM EDT 1,017.09 821.23 20
4/23/2018 1 PM EDT 1,017.07 821.16 20
4/23/2018 2 PM EDT 1,017.06 822.11 97
4/23/2018 3 PM EDT 1,017.11 823.46 3,209
4/23/2018 4 PM EDT 1,017.09 822.14 20
4/23/2018 5 PM EDT 1,017.09 821.83 20
4/23/2018 6 PM EDT 1,017.10 821.69 20
4/23/2018 7 PM EDT 1,017.13 821.60 20
4/23/2018 8 PM EDT 1,017.14 821.52 20
4/23/2018 9 PM EDT 1,017.15 821.44 20

Elevations are in feet above sea level. Discharges are in cubic feet per second and are reported at the end of the hour.